Time;durP1;ratioP1;P1;durP2;ratioP2;P2;SDS_P1;SDS_P2;PMS_P1;PMS_P2;Temp;Humidity;BMP_temperature;BMP_pressure;BME280_temperature;BME280_humidity;BME280_pressure;Samples;Min_cycle;Max_cycle;Signal;HPM_P1;HPM_P2
2022/06/05 00:00:14;;;;;;;11.55;7.78;;;15.40;64.00;;;;;;2373821;56;21043;-75
2022/06/05 00:03:02;;;;;;;13.30;8.45;;;15.30;64.10;;;;;;2374094;56;21169;-75
2022/06/05 00:05:35;;;;;;;9.55;6.68;;;15.30;63.90;;;;;;2484360;52;21039;-76
2022/06/05 00:08:12;;;;;;;7.40;5.70;;;15.30;63.80;;;;;;2372733;56;21043;-75
2022/06/05 00:10:45;;;;;;;9.38;7.18;;;15.20;63.90;;;;;;2372625;56;21094;-75
2022/06/05 00:13:19;;;;;;;7.70;5.70;;;15.10;64.00;;;;;;2372654;56;21126;-75
2022/06/05 00:15:46;;;;;;;6.12;4.50;;;15.10;64.00;;;;;;2371543;56;21118;-75
2022/06/05 00:18:14;;;;;;;5.55;4.30;;;15.00;64.00;;;;;;2372177;56;21063;-75
2022/06/05 00:20:43;;;;;;;5.87;4.80;;;15.00;64.30;;;;;;2372236;56;21027;-76
2022/06/05 00:23:11;;;;;;;7.22;5.65;;;14.90;64.20;;;;;;2395213;52;21298;-75
2022/06/05 00:25:56;;;;;;;7.62;5.82;;;14.90;64.20;;;;;;2371879;56;21126;-75
2022/06/05 00:28:34;;;;;;;8.05;5.80;;;14.90;64.20;;;;;;2372784;56;21106;-75
2022/06/05 00:31:10;;;;;;;12.35;7.53;;;14.90;64.00;;;;;;2372962;56;21051;-75
2022/06/05 00:33:39;;;;;;;10.93;7.22;;;14.80;63.90;;;;;;2373123;56;21063;-75
2022/06/05 00:36:19;;;;;;;9.57;6.60;;;14.80;64.00;;;;;;2372337;56;21143;-77
2022/06/05 00:38:59;;;;;;;9.32;6.72;;;14.70;64.20;;;;;;2373381;56;21102;-78
2022/06/05 00:41:58;;;;;;;10.40;7.75;;;14.70;64.40;;;;;;2373149;56;21097;-77
2022/06/05 00:44:30;;;;;;;8.45;6.18;;;14.60;65.00;;;;;;2372117;56;21043;-76
2022/06/05 00:46:59;;;;;;;6.57;5.25;;;14.50;64.50;;;;;;2372868;56;21111;-75
2022/06/05 00:49:35;;;;;;;7.93;5.53;;;14.50;64.30;;;;;;2373036;56;21047;-75
2022/06/05 00:52:05;;;;;;;11.25;7.35;;;14.40;64.10;;;;;;2372535;56;21126;-75
2022/06/05 00:54:32;;;;;;;12.20;8.48;;;14.30;64.20;;;;;;2372955;56;21573;-77
2022/06/05 00:57:00;;;;;;;10.93;8.13;;;14.30;64.50;;;;;;2373108;56;21364;-77
2022/06/05 00:59:28;;;;;;;13.60;9.32;;;14.30;64.60;;;;;;2419462;52;21047;-77
2022/06/05 01:01:56;;;;;;;11.20;7.57;;;14.20;64.60;;;;;;2373275;56;21137;-77
2022/06/05 01:04:23;;;;;;;10.52;7.28;;;14.20;64.80;;;;;;2403936;52;21051;-77
2022/06/05 01:06:52;;;;;;;11.02;7.95;;;14.10;65.10;;;;;;2415109;52;21066;-78
2022/06/05 01:09:19;;;;;;;11.45;7.93;;;14.10;65.30;;;;;;2373573;56;21566;-78
2022/06/05 01:12:00;;;;;;;11.20;6.78;;;14.10;65.30;;;;;;2373427;56;21549;-78
2022/06/05 01:14:39;;;;;;;12.80;8.30;;;14.00;65.90;;;;;;2402360;52;21035;-77
2022/06/05 01:17:16;;;;;;;12.13;7.65;;;14.10;65.30;;;;;;2372791;56;21050;-78
2022/06/05 01:19:55;;;;;;;12.57;8.85;;;14.00;66.00;;;;;;2375321;52;21055;-78
2022/06/05 01:23:20;;;;;;;8.98;6.75;;;14.00;65.30;;;;;;2373566;56;21160;-78
2022/06/05 01:26:10;;;;;;;14.27;7.70;;;14.10;65.60;;;;;;2374052;52;21323;-76
2022/06/05 01:28:42;;;;;;;12.30;8.13;;;14.00;65.00;;;;;;2390089;52;21193;-76
2022/06/05 01:31:18;;;;;;;11.45;7.78;;;14.00;65.20;;;;;;2372530;56;21110;-78
2022/06/05 01:33:57;;;;;;;12.73;8.18;;;13.90;65.30;;;;;;2416411;52;21126;-78
2022/06/05 01:36:32;;;;;;;9.93;7.93;;;13.90;65.20;;;;;;2373394;56;21538;-78
2022/06/05 01:39:06;;;;;;;11.55;8.38;;;13.90;66.10;;;;;;2373591;56;21680;-78
2022/06/05 01:41:37;;;;;;;13.43;9.30;;;13.90;65.50;;;;;;2373852;56;21054;-78
2022/06/05 01:44:14;;;;;;;14.82;8.02;;;13.90;65.40;;;;;;2373292;56;21169;-78
2022/06/05 01:46:41;;;;;;;11.60;8.63;;;13.80;65.40;;;;;;2372885;56;22174;-78
2022/06/05 01:49:15;;;;;;;16.27;7.78;;;13.80;65.60;;;;;;2373878;56;21119;-78
2022/06/05 01:51:50;;;;;;;15.00;6.30;;;13.70;65.80;;;;;;2416125;52;21052;-77
2022/06/05 01:54:22;;;;;;;8.60;5.57;;;13.60;65.70;;;;;;2373646;56;21059;-78
2022/06/05 01:56:53;;;;;;;7.43;5.40;;;13.60;65.80;;;;;;2412355;52;21102;-78
2022/06/05 01:59:27;;;;;;;6.53;5.55;;;13.50;65.90;;;;;;2373541;56;21110;-77
2022/06/05 02:01:58;;;;;;;6.65;4.65;;;13.40;66.10;;;;;;2373404;56;21066;-77
2022/06/05 02:04:33;;;;;;;5.12;4.40;;;13.40;66.40;;;;;;2373682;56;21204;-78
2022/06/05 02:07:07;;;;;;;7.12;5.37;;;13.30;66.50;;;;;;2373206;56;21051;-77
2022/06/05 02:09:37;;;;;;;9.43;6.70;;;13.30;66.40;;;;;;2373381;56;22464;-78
2022/06/05 02:12:08;;;;;;;7.25;5.32;;;13.30;66.40;;;;;;2373456;56;21066;-78
2022/06/05 02:14:37;;;;;;;6.25;4.90;;;13.20;66.50;;;;;;2373564;56;21177;-78
2022/06/05 02:17:06;;;;;;;5.28;4.62;;;13.20;66.90;;;;;;2373455;56;21043;-78
2022/06/05 02:19:34;;;;;;;6.85;5.18;;;13.10;67.10;;;;;;2373345;56;21043;-77
2022/06/05 02:22:07;;;;;;;10.25;6.50;;;13.10;67.00;;;;;;2373305;56;21062;-78
2022/06/05 02:24:34;;;;;;;9.52;5.70;;;13.10;66.90;;;;;;2373895;56;21149;-78
2022/06/05 02:27:05;;;;;;;8.48;6.00;;;13.10;66.90;;;;;;2373610;56;21359;-77
2022/06/05 02:29:33;;;;;;;8.30;5.68;;;13.00;66.90;;;;;;2373009;56;21039;-78
2022/06/05 02:32:14;;;;;;;11.93;6.82;;;13.00;67.00;;;;;;2373642;56;21122;-78
2022/06/05 02:34:50;;;;;;;7.55;5.95;;;13.00;67.00;;;;;;2408666;52;21051;-78
2022/06/05 02:37:34;;;;;;;6.90;4.85;;;13.00;67.00;;;;;;2386532;52;21055;-78
2022/06/05 02:40:10;;;;;;;10.93;6.53;;;13.00;67.30;;;;;;2373150;56;21047;-77
2022/06/05 02:42:44;;;;;;;9.88;6.25;;;13.00;67.10;;;;;;2372918;56;21138;-77
2022/06/05 02:45:21;;;;;;;7.20;5.47;;;12.90;66.90;;;;;;2373669;52;21621;-77
2022/06/05 02:48:02;;;;;;;8.63;6.03;;;12.90;67.10;;;;;;2371655;55;21448;-77
2022/06/05 02:50:37;;;;;;;9.65;6.97;;;12.90;67.10;;;;;;2372804;56;21059;-77
2022/06/05 02:53:07;;;;;;;10.35;7.00;;;12.90;66.90;;;;;;2384926;52;21569;-77
2022/06/05 02:55:35;;;;;;;10.07;5.90;;;12.90;66.70;;;;;;2372478;56;21081;-77
2022/06/05 02:58:03;;;;;;;10.02;6.68;;;12.90;66.90;;;;;;2372404;56;21062;-77
2022/06/05 03:00:34;;;;;;;13.13;7.43;;;12.90;67.10;;;;;;2384114;52;21114;-78
2022/06/05 03:05:47;;;;;;;13.48;8.15;;;12.90;68.00;;;;;;2371940;52;21008;-78
2022/06/05 03:08:17;;;;;;;13.02;8.18;;;12.90;67.50;;;;;;2417716;52;21111;-77
2022/06/05 03:10:45;;;;;;;12.05;7.68;;;12.90;67.50;;;;;;2372454;56;21098;-77
2022/06/05 03:13:12;;;;;;;10.90;7.30;;;13.00;67.40;;;;;;2432497;52;21109;-77
2022/06/05 03:15:41;;;;;;;11.35;7.78;;;13.00;67.40;;;;;;2372353;56;21072;-77
2022/06/05 03:18:11;;;;;;;10.57;7.60;;;13.00;67.20;;;;;;2374965;52;21071;-78
2022/06/05 03:20:39;;;;;;;10.35;7.50;;;13.00;67.10;;;;;;2373344;56;21107;-77
2022/06/05 03:23:09;;;;;;;11.52;6.45;;;13.00;67.20;;;;;;2377253;52;21106;-77
2022/06/05 03:25:39;;;;;;;11.52;8.13;;;13.00;67.30;;;;;;2371774;56;21479;-78
2022/06/05 03:28:07;;;;;;;8.80;6.43;;;13.00;67.60;;;;;;2373105;56;21061;-78
2022/06/05 03:30:37;;;;;;;8.93;6.25;;;13.00;68.00;;;;;;2372680;56;21411;-77
2022/06/05 03:33:05;;;;;;;7.78;5.85;;;12.90;68.10;;;;;;2372816;56;21629;-77
2022/06/05 03:35:34;;;;;;;12.80;7.75;;;12.90;68.40;;;;;;2372469;56;21525;-78
2022/06/05 03:38:04;;;;;;;12.35;7.60;;;12.90;68.60;;;;;;2372987;56;21047;-77
2022/06/05 03:40:32;;;;;;;10.85;6.93;;;12.90;68.70;;;;;;2372740;56;21070;-77
2022/06/05 03:42:59;;;;;;;9.48;6.60;;;12.90;68.80;;;;;;2372381;56;21058;-77
2022/06/05 03:45:27;;;;;;;8.55;6.28;;;12.80;69.00;;;;;;2372623;56;21099;-77
2022/06/05 03:47:54;;;;;;;8.93;6.10;;;12.90;69.10;;;;;;2372955;56;21126;-78
2022/06/05 03:50:22;;;;;;;8.63;5.90;;;12.90;69.00;;;;;;2372727;56;21047;-78
2022/06/05 03:52:49;;;;;;;6.68;5.47;;;12.90;69.00;;;;;;2373160;56;21130;-78
2022/06/05 03:55:19;;;;;;;10.52;7.07;;;13.00;69.00;;;;;;2385470;52;21154;-78
2022/06/05 03:57:46;;;;;;;9.77;6.75;;;13.00;69.10;;;;;;2372946;56;21122;-77
2022/06/05 04:00:17;;;;;;;11.63;7.62;;;13.00;69.40;;;;;;2372538;56;21051;-77
2022/06/05 04:02:45;;;;;;;9.68;7.07;;;13.00;69.50;;;;;;2372928;56;21608;-77
2022/06/05 04:05:15;;;;;;;11.45;7.97;;;13.00;69.80;;;;;;2372686;56;21316;-77
2022/06/05 04:07:43;;;;;;;11.43;7.87;;;13.00;69.80;;;;;;2373023;56;21704;-78
2022/06/05 04:10:15;;;;;;;10.55;6.93;;;13.10;69.90;;;;;;2372835;56;21130;-77
2022/06/05 04:12:42;;;;;;;9.85;6.50;;;13.10;69.90;;;;;;2434017;53;21539;-73
2022/06/05 04:15:11;;;;;;;10.80;6.78;;;13.10;69.90;;;;;;2330883;57;21183;-73
2022/06/05 04:17:38;;;;;;;11.95;7.93;;;13.10;70.00;;;;;;2573996;53;21042;-73
2022/06/05 04:20:11;;;;;;;10.13;7.70;;;13.10;70.10;;;;;;2329604;57;21517;-73
2022/06/05 04:22:40;;;;;;;10.38;7.37;;;13.20;70.20;;;;;;2329728;57;21090;-73
2022/06/05 04:25:13;;;;;;;10.63;7.72;;;13.20;70.30;;;;;;2573253;54;21113;-73
2022/06/05 04:27:40;;;;;;;;;;;13.20;70.50;;;;;;2332085;57;21037;-73
2022/06/05 04:30:09;;;;;;;12.70;8.68;;;13.40;70.50;;;;;;2573039;54;20071;-73
2022/06/05 04:32:36;;;;;;;13.43;8.88;;;13.40;70.40;;;;;;2328915;57;21058;-73
2022/06/05 04:35:05;;;;;;;12.40;7.80;;;13.40;70.80;;;;;;2572460;54;21580;-73
2022/06/05 04:37:33;;;;;;;12.43;7.75;;;13.40;71.20;;;;;;2329316;57;21043;-73
2022/06/05 04:40:00;;;;;;;15.23;9.43;;;13.40;71.20;;;;;;2329610;57;21089;-73
2022/06/05 04:42:27;;;;;;;11.35;8.68;;;13.50;71.40;;;;;;2329911;57;21110;-74
2022/06/05 04:44:55;;;;;;;13.05;8.50;;;13.50;71.60;;;;;;2328840;57;21161;-73
2022/06/05 04:47:22;;;;;;;14.90;9.63;;;13.60;71.80;;;;;;2329194;57;21609;-73
2022/06/05 04:49:49;;;;;;;14.00;9.82;;;13.60;72.00;;;;;;2329079;57;21058;-74
2022/06/05 04:52:17;;;;;;;16.23;10.15;;;13.70;73.20;;;;;;2329654;57;21584;-73
2022/06/05 04:54:44;;;;;;;16.60;10.60;;;13.70;72.50;;;;;;2329730;57;21117;-73
2022/06/05 04:57:11;;;;;;;22.10;12.23;;;13.80;72.80;;;;;;2329109;57;21556;-73
2022/06/05 05:02:14;;;;;;;20.37;14.25;;;13.80;73.00;;;;;;2336528;57;27874;-74
2022/06/05 05:04:41;;;;;;;17.58;11.85;;;13.60;77.10;;;;;;2594604;53;21038;-73
2022/06/05 05:07:09;;;;;;;18.20;11.27;;;13.80;76.10;;;;;;2346707;57;21054;-73
2022/06/05 05:09:36;;;;;;;21.05;13.23;;;14.00;75.30;;;;;;2346010;57;21090;-73
2022/06/05 05:12:05;;;;;;;20.20;13.93;;;14.10;75.00;;;;;;2346019;57;21097;-73
2022/06/05 05:14:32;;;;;;;17.92;12.00;;;14.10;75.00;;;;;;2346292;57;21579;-73
2022/06/05 05:16:59;;;;;;;18.23;11.68;;;14.20;75.10;;;;;;2345824;57;21046;-73
2022/06/05 05:19:27;;;;;;;17.70;12.05;;;14.30;75.20;;;;;;2346163;57;21046;-73
2022/06/05 05:21:54;;;;;;;18.67;12.70;;;14.30;75.50;;;;;;2345863;57;21062;-73
2022/06/05 05:24:22;;;;;;;20.88;11.95;;;14.40;75.90;;;;;;2345758;57;21081;-73
2022/06/05 05:26:49;;;;;;;15.35;11.23;;;14.40;75.90;;;;;;2345698;57;21580;-74
2022/06/05 05:29:16;;;;;;;20.27;13.18;;;14.40;75.90;;;;;;2346245;57;21101;-74
2022/06/05 05:31:45;;;;;;;17.98;12.00;;;14.50;76.10;;;;;;2346249;57;21536;-73
2022/06/05 05:34:14;;;;;;;16.52;11.93;;;14.60;76.30;;;;;;2345779;57;21042;-73
2022/06/05 05:36:42;;;;;;;18.25;12.65;;;14.60;76.20;;;;;;2345727;57;21543;-74
2022/06/05 05:42:07;;;;;;;14.60;10.55;;;14.70;76.60;;;;;;2345954;57;21018;-74
2022/06/05 05:44:37;;;;;;;21.30;11.63;;;14.80;76.50;;;;;;2346280;57;21046;-74
2022/06/05 05:47:07;;;;;;;18.55;12.77;;;14.90;77.00;;;;;;2345673;57;21045;-74
2022/06/05 05:49:34;;;;;;;16.33;12.13;;;14.90;77.60;;;;;;2345896;57;21042;-73
2022/06/05 05:52:02;;;;;;;20.77;12.37;;;14.90;77.30;;;;;;2344683;57;21046;-74
2022/06/05 05:54:30;;;;;;;18.20;12.40;;;15.00;77.80;;;;;;2344791;57;21113;-74
2022/06/05 05:56:57;;;;;;;23.80;12.27;;;15.00;77.90;;;;;;2344357;57;21053;-73
2022/06/05 05:59:25;;;;;;;16.92;11.55;;;15.10;77.80;;;;;;2345668;57;21543;-74
2022/06/05 06:01:52;;;;;;;19.50;11.07;;;15.10;77.50;;;;;;2344781;57;21057;-73
2022/06/05 06:04:20;;;;;;;15.93;10.52;;;15.20;77.50;;;;;;2344717;57;21153;-73
2022/06/05 06:06:49;;;;;;;14.65;10.20;;;15.30;76.90;;;;;;2590426;53;21105;-75
2022/06/05 06:09:16;;;;;;;13.77;9.93;;;15.30;76.60;;;;;;2344755;57;21053;-73
2022/06/05 06:11:44;;;;;;;13.32;9.02;;;15.40;76.40;;;;;;2345975;57;21038;-73
2022/06/05 06:14:11;;;;;;;10.75;8.80;;;15.50;76.10;;;;;;2344446;57;21046;-73
2022/06/05 06:16:39;;;;;;;12.60;8.85;;;15.50;75.80;;;;;;2344565;57;21627;-73
2022/06/05 06:19:06;;;;;;;14.90;9.20;;;15.60;75.70;;;;;;2342866;57;21041;-73
2022/06/05 06:21:33;;;;;;;11.82;7.80;;;15.60;75.30;;;;;;2344406;57;21053;-74
2022/06/05 06:24:01;;;;;;;11.77;7.78;;;15.60;74.80;;;;;;2344121;57;21093;-74
2022/06/05 06:26:29;;;;;;;10.15;7.07;;;15.70;75.30;;;;;;2343812;57;21604;-73
2022/06/05 06:28:56;;;;;;;10.57;8.05;;;15.70;74.40;;;;;;2344436;57;21041;-73
2022/06/05 06:31:23;;;;;;;12.15;8.60;;;15.80;74.20;;;;;;2345041;57;21038;-73
2022/06/05 06:33:51;;;;;;;11.73;8.77;;;15.90;74.60;;;;;;2345071;57;21030;-73
2022/06/05 06:36:19;;;;;;;13.57;9.38;;;15.90;74.60;;;;;;2342893;57;21129;-73
2022/06/05 06:38:47;;;;;;;15.70;9.38;;;15.90;74.50;;;;;;2343890;57;21073;-73
2022/06/05 06:41:17;;;;;;;15.50;10.07;;;16.00;74.60;;;;;;2342172;57;21687;-74
2022/06/05 06:43:46;;;;;;;13.77;9.40;;;16.00;74.90;;;;;;2344497;57;21114;-74
2022/06/05 06:46:14;;;;;;;11.88;8.82;;;16.10;75.10;;;;;;2343402;57;21054;-74
2022/06/05 06:48:42;;;;;;;13.43;9.57;;;16.10;75.10;;;;;;2343868;57;21189;-73
2022/06/05 06:51:11;;;;;;;11.50;9.05;;;16.20;75.30;;;;;;2344632;57;21560;-74
2022/06/05 06:53:40;;;;;;;11.82;8.50;;;16.20;75.30;;;;;;2343045;57;21049;-74
2022/06/05 06:56:10;;;;;;;10.57;8.25;;;16.20;75.10;;;;;;2343501;57;21101;-74
2022/06/05 06:58:37;;;;;;;13.80;9.10;;;16.30;75.10;;;;;;2344020;57;21169;-74
2022/06/05 07:01:05;;;;;;;15.18;9.13;;;16.30;75.10;;;;;;2588948;53;21058;-73
2022/06/05 07:03:33;;;;;;;9.60;7.87;;;16.40;74.80;;;;;;2590458;53;21034;-74
2022/06/05 07:06:01;;;;;;;10.85;8.52;;;16.40;74.80;;;;;;2344184;57;21042;-74
2022/06/05 07:08:29;;;;;;;11.93;8.50;;;16.40;74.90;;;;;;2342628;57;21058;-74
2022/06/05 07:10:57;;;;;;;14.57;8.73;;;16.50;75.20;;;;;;2343931;57;21134;-74
2022/06/05 07:13:24;;;;;;;11.05;7.62;;;16.50;75.00;;;;;;2341923;57;21129;-73
2022/06/05 07:15:52;;;;;;;13.20;7.65;;;16.60;75.10;;;;;;2343966;57;21102;-73
2022/06/05 07:18:20;;;;;;;10.30;7.70;;;16.60;74.90;;;;;;2344093;57;21038;-73
2022/06/05 07:20:48;;;;;;;9.45;7.10;;;16.70;74.70;;;;;;2343932;57;21532;-73
2022/06/05 07:23:15;;;;;;;11.27;7.75;;;16.70;74.30;;;;;;2343481;57;21073;-73
2022/06/05 07:25:47;;;;;;;12.25;8.07;;;16.80;73.90;;;;;;2343977;57;21038;-73
2022/06/05 07:28:14;;;;;;;10.18;6.50;;;16.80;73.70;;;;;;2343519;57;21101;-73
2022/06/05 07:30:45;;;;;;;10.15;7.25;;;16.90;73.40;;;;;;2590704;53;21093;-73
2022/06/05 07:33:12;;;;;;;13.38;7.62;;;16.90;73.30;;;;;;2343826;57;21034;-72
2022/06/05 07:35:41;;;;;;;8.52;6.62;;;16.90;73.20;;;;;;2342658;57;21082;-73
2022/06/05 07:38:09;;;;;;;10.80;7.78;;;17.00;73.10;;;;;;2590283;53;21114;-73
2022/06/05 07:40:39;;;;;;;10.27;7.97;;;17.10;73.20;;;;;;2342937;57;21567;-73
2022/06/05 07:43:09;;;;;;;8.77;6.80;;;17.10;72.90;;;;;;2343581;57;21042;-73
2022/06/05 07:45:37;;;;;;;9.90;7.18;;;17.10;73.50;;;;;;2342619;57;22531;-73
2022/06/05 07:48:07;;;;;;;9.07;6.57;;;17.10;72.60;;;;;;2343178;57;21141;-73
2022/06/05 07:54:26;;;;;;;8.73;6.80;;;17.20;72.60;;;;;;2342420;57;21129;-73
2022/06/05 07:59:46;;;;;;;9.57;7.87;;;17.20;72.60;;;;;;2305558;57;27957;-72
2022/06/05 08:02:18;;;;;;;7.75;6.25;;;17.20;72.40;;;;;;2318158;58;21367;-73
2022/06/05 08:04:46;;;;;;;7.80;6.20;;;17.30;71.90;;;;;;2317955;58;21195;-73
2022/06/05 08:07:16;;;;;;;10.20;6.30;;;17.40;71.30;;;;;;2317405;58;21064;-74
2022/06/05 08:09:44;;;;;;;11.60;6.70;;;17.50;70.70;;;;;;2317785;58;21111;-73
2022/06/05 08:12:14;;;;;;;8.10;6.43;;;17.50;70.60;;;;;;2559330;54;21064;-73
2022/06/05 08:14:44;;;;;;;8.52;6.65;;;17.60;70.50;;;;;;2317865;58;21044;-72
2022/06/05 08:17:14;;;;;;;8.93;6.55;;;17.60;70.30;;;;;;2317078;58;21625;-73
2022/06/05 08:19:43;;;;;;;7.93;6.03;;;17.70;70.30;;;;;;2316947;58;21546;-73
2022/06/05 08:22:12;;;;;;;10.18;5.78;;;17.70;69.90;;;;;;2316367;58;21060;-73
2022/06/05 08:24:41;;;;;;;7.65;6.00;;;17.70;69.50;;;;;;2318202;58;21697;-73
2022/06/05 08:27:10;;;;;;;8.50;5.45;;;17.70;69.00;;;;;;2559292;54;21099;-73
2022/06/05 08:29:37;;;;;;;6.50;4.90;;;17.80;68.60;;;;;;2317735;58;21051;-74
2022/06/05 08:32:07;;;;;;;5.47;4.40;;;17.80;67.60;;;;;;2318360;58;21167;-73
2022/06/05 08:34:35;;;;;;;10.25;4.62;;;17.80;67.40;;;;;;2318037;58;21100;-74
2022/06/05 08:42:47;;;;;;;4.80;3.90;;;17.90;65.70;;;;;;2317760;58;21028;-73
2022/06/05 08:45:22;;;;;;;5.22;3.90;;;17.90;66.10;;;;;;2318407;58;21591;-74
2022/06/05 08:47:56;;;;;;;4.68;3.97;;;18.00;66.30;;;;;;2318683;58;21060;-73
2022/06/05 08:50:31;;;;;;;5.70;4.28;;;18.00;66.40;;;;;;2317839;58;21048;-73
2022/06/05 08:53:03;;;;;;;5.53;4.35;;;18.10;66.50;;;;;;2318733;58;21127;-72
2022/06/05 08:55:34;;;;;;;8.95;4.10;;;18.10;66.90;;;;;;2318184;58;21048;-72
2022/06/05 08:58:09;;;;;;;8.35;4.05;;;18.20;66.70;;;;;;2559290;54;21052;-72
2022/06/05 09:00:40;;;;;;;4.72;3.72;;;18.20;66.40;;;;;;2319239;58;21048;-73
2022/06/05 09:03:16;;;;;;;7.30;3.75;;;18.20;65.90;;;;;;2558985;53;21052;-72
2022/06/05 09:05:48;;;;;;;4.40;3.58;;;18.30;65.20;;;;;;2317841;58;21056;-72
2022/06/05 09:08:18;;;;;;;4.12;3.47;;;18.40;65.20;;;;;;2317212;58;21080;-72
2022/06/05 09:10:48;;;;;;;4.07;3.62;;;18.40;65.10;;;;;;2317064;58;21559;-73
2022/06/05 09:13:20;;;;;;;5.05;3.87;;;18.40;63.60;;;;;;2317718;58;21056;-72
2022/06/05 09:15:52;;;;;;;5.47;4.18;;;18.50;62.10;;;;;;2316770;58;21119;-72
2022/06/05 09:18:23;;;;;;;4.60;3.03;;;18.60;62.60;;;;;;2317153;58;21075;-72
2022/06/05 09:20:55;;;;;;;3.92;3.47;;;18.60;61.80;;;;;;2317706;58;21124;-72
2022/06/05 09:23:30;;;;;;;3.92;3.28;;;18.70;61.80;;;;;;2316752;58;21132;-75
2022/06/05 09:26:12;;;;;;;4.15;2.97;;;18.70;61.40;;;;;;2317387;58;21056;-73
2022/06/05 09:32:34;;;;;;;4.18;3.10;;;18.80;59.60;;;;;;2535629;53;22668;-75
2022/06/05 09:35:13;;;;;;;5.28;3.65;;;18.90;60.50;;;;;;2283626;58;21125;-75
2022/06/05 09:37:44;;;;;;;5.75;3.67;;;19.00;61.40;;;;;;2292989;58;21680;-76
2022/06/05 09:40:19;;;;;;;7.18;3.90;;;19.00;63.50;;;;;;2316075;58;21151;-75
2022/06/05 09:43:19;;;;;;;5.25;3.37;;;19.10;62.10;;;;;;2317269;58;21060;-76
2022/06/05 09:45:57;;;;;;;3.90;3.10;;;19.20;61.60;;;;;;2316292;58;21056;-75
2022/06/05 09:48:37;;;;;;;5.00;3.40;;;19.20;61.20;;;;;;2315534;58;21048;-76
2022/06/05 09:51:09;;;;;;;6.50;3.33;;;19.30;60.50;;;;;;2316223;58;21064;-75
2022/06/05 09:53:40;;;;;;;6.90;3.37;;;19.40;59.80;;;;;;2557482;54;21590;-76
2022/06/05 09:56:16;;;;;;;4.57;3.62;;;19.40;60.50;;;;;;2315782;58;21049;-76
2022/06/05 09:59:14;;;;;;;4.93;3.30;;;19.50;60.70;;;;;;2316915;58;21056;-75
2022/06/05 10:01:51;;;;;;;4.20;3.58;;;19.60;61.20;;;;;;2316606;58;21056;-77
2022/06/05 10:04:20;;;;;;;3.97;3.22;;;19.70;61.90;;;;;;2315902;58;21937;-77
2022/06/05 10:06:51;;;;;;;7.18;3.00;;;19.70;61.00;;;;;;2315413;58;21523;-77
2022/06/05 10:09:23;;;;;;;3.28;2.87;;;19.80;60.30;;;;;;2556001;54;21179;-77
2022/06/05 10:11:58;;;;;;;3.97;3.08;;;19.90;60.10;;;;;;2314835;58;21041;-76
2022/06/05 10:14:43;;;;;;;3.40;2.90;;;19.90;60.00;;;;;;2465796;54;71371;-75
2022/06/05 10:17:25;;;;;;;2.60;2.40;;;20.00;59.00;;;;;;2264995;59;21101;-76
2022/06/05 10:20:00;;;;;;;2.83;2.53;;;20.10;56.90;;;;;;2495091;55;21069;-76
2022/06/05 10:22:34;;;;;;;4.93;2.53;;;20.20;56.80;;;;;;2491375;55;21136;-75
2022/06/05 10:25:15;;;;;;;3.00;2.35;;;20.20;56.20;;;;;;2239689;60;22198;-77
2022/06/05 10:27:49;;;;;;;2.45;2.25;;;20.30;55.10;;;;;;2240104;60;21056;-77
2022/06/05 10:30:18;;;;;;;4.07;2.55;;;20.40;56.10;;;;;;2240081;60;21079;-77
2022/06/05 10:32:53;;;;;;;3.55;2.97;;;20.50;56.50;;;;;;2239599;60;21184;-77
2022/06/05 10:35:26;;;;;;;4.65;2.87;;;20.60;57.10;;;;;;2239340;60;21063;-76
2022/06/05 10:38:00;;;;;;;4.25;2.85;;;20.80;56.90;;;;;;2240353;60;21160;-77
2022/06/05 10:40:39;;;;;;;3.87;2.33;;;20.90;56.20;;;;;;2462709;56;21056;-75
2022/06/05 10:45:56;;;;;;;2.67;2.23;;;21.10;55.30;;;;;;2583855;53;29179;-76
2022/06/05 10:48:40;;;;;;;2.08;1.77;;;21.40;53.90;;;;;;2375461;56;21035;-76
2022/06/05 10:51:17;;;;;;;6.45;2.40;;;21.40;54.30;;;;;;2375951;56;21035;-76
2022/06/05 10:53:51;;;;;;;3.42;1.98;;;21.40;54.50;;;;;;2375702;56;21596;-76
2022/06/05 10:56:30;;;;;;;2.95;2.03;;;21.60;53.90;;;;;;2628776;52;21053;-76
2022/06/05 10:59:06;;;;;;;1.60;1.50;;;21.60;51.40;;;;;;2375163;56;21762;-76
2022/06/05 11:01:56;;;;;;;8.73;1.98;;;21.70;51.40;;;;;;2374454;56;21041;-76
2022/06/05 11:07:45;;;;;;;1.58;1.48;;;22.00;50.40;;;;;;2534890;54;22098;-75
2022/06/05 11:15:57;;;;;;;2.90;1.60;;;22.40;49.10;;;;;;2291023;58;21031;-75
2022/06/05 11:18:33;;;;;;;1.55;1.45;;;22.50;48.50;;;;;;2527258;54;21138;-76
2022/06/05 11:21:02;;;;;;;2.25;1.48;;;22.60;48.10;;;;;;2291985;58;21110;-76
2022/06/05 11:23:33;;;;;;;2.90;1.85;;;22.80;47.60;;;;;;2527578;54;21166;-77
2022/06/05 11:26:13;;;;;;;3.28;1.50;;;22.90;47.70;;;;;;2526290;55;21714;-76
2022/06/05 11:28:55;;;;;;;2.17;1.73;;;23.00;46.30;;;;;;2527015;55;21114;-76
2022/06/05 11:31:37;;;;;;;4.05;1.30;;;23.10;43.50;;;;;;2291857;58;21122;-76
2022/06/05 11:34:24;;;;;;;1.65;1.40;;;23.20;42.80;;;;;;2292183;58;21214;-77
2022/06/05 11:36:54;;;;;;;2.58;1.33;;;23.30;41.30;;;;;;2291921;58;21122;-77
2022/06/05 11:39:32;;;;;;;1.20;1.10;;;23.40;42.00;;;;;;2531631;54;21122;-83
2022/06/05 11:42:14;;;;;;;1.83;1.58;;;23.50;41.60;;;;;;2530816;54;21078;-84
2022/06/05 11:44:47;;;;;;;2.28;1.50;;;23.70;42.60;;;;;;2531334;54;21111;-84
2022/06/05 11:47:34;;;;;;;2.67;1.23;;;23.80;42.50;;;;;;2295713;58;21118;-85
2022/06/05 11:50:11;;;;;;;1.75;1.23;;;23.90;39.20;;;;;;2531393;54;21151;-85
2022/06/05 11:52:44;;;;;;;2.35;1.60;;;23.90;39.30;;;;;;2295362;58;21058;-83
2022/06/05 11:55:26;;;;;;;2.15;1.33;;;24.00;39.10;;;;;;2296195;58;21067;-85
2022/06/05 11:58:00;;;;;;;1.73;1.30;;;24.10;40.30;;;;;;2294837;58;21143;-85
2022/06/05 12:00:35;;;;;;;3.42;1.45;;;24.10;38.70;;;;;;2294556;58;21126;-85
2022/06/05 12:03:11;;;;;;;2.08;1.20;;;24.20;39.40;;;;;;2531443;54;21075;-86
2022/06/05 12:05:48;;;;;;;1.48;1.30;;;24.30;40.30;;;;;;2294611;58;21114;-85
2022/06/05 12:08:19;;;;;;;1.65;1.20;;;24.40;40.80;;;;;;2296188;58;21094;-85
2022/06/05 12:10:56;;;;;;;1.42;1.33;;;24.50;39.30;;;;;;2296209;58;21079;-85
2022/06/05 12:13:41;;;;;;;3.12;1.50;;;24.60;37.80;;;;;;2531424;54;21079;-85
2022/06/05 12:16:11;;;;;;;1.45;1.30;;;24.70;38.00;;;;;;2530718;54;21070;-85
2022/06/05 12:18:45;;;;;;;2.03;1.23;;;24.80;38.20;;;;;;2295317;58;21086;-86
2022/06/05 12:21:20;;;;;;;1.55;1.05;;;24.90;40.10;;;;;;2295227;58;21133;-84
2022/06/05 12:23:54;;;;;;;1.00;0.90;;;25.00;38.20;;;;;;2294347;58;21079;-85
2022/06/05 12:26:31;;;;;;;1.10;0.95;;;25.00;36.70;;;;;;2529105;54;21114;-85
2022/06/05 12:29:05;;;;;;;1.95;1.25;;;25.10;36.20;;;;;;2294477;58;21137;-85
2022/06/05 12:31:38;;;;;;;1.12;1.00;;;25.20;35.90;;;;;;2529558;55;21082;-84
2022/06/05 12:34:14;;;;;;;0.80;0.80;;;25.30;37.20;;;;;;2530057;54;21566;-85
2022/06/05 12:36:46;;;;;;;0.90;0.90;;;25.30;37.40;;;;;;2294351;58;21046;-82
2022/06/05 12:39:22;;;;;;;0.80;0.80;;;25.40;36.40;;;;;;2529385;55;21050;-83
2022/06/05 12:42:03;;;;;;;1.25;0.90;;;25.40;35.00;;;;;;2530232;55;21083;-84
2022/06/05 12:44:34;;;;;;;1.27;1.00;;;25.40;36.10;;;;;;2295167;58;21095;-85
2022/06/05 12:47:07;;;;;;;1.12;1.02;;;25.40;35.30;;;;;;2294295;58;21130;-85
2022/06/05 12:49:57;;;;;;;1.12;0.98;;;25.60;35.90;;;;;;2294974;58;21141;-84
2022/06/05 12:52:34;;;;;;;1.12;1.02;;;25.60;35.30;;;;;;2529889;55;21123;-84
2022/06/05 12:55:10;;;;;;;1.15;1.05;;;25.80;36.60;;;;;;2530732;54;21067;-84
2022/06/05 12:57:49;;;;;;;1.83;1.25;;;25.80;36.30;;;;;;2294794;58;21090;-83
2022/06/05 13:00:31;;;;;;;1.30;1.00;;;25.90;36.30;;;;;;2295666;58;21070;-84
2022/06/05 13:03:04;;;;;;;1.40;1.12;;;26.00;36.20;;;;;;2295591;58;21170;-84
2022/06/05 13:05:38;;;;;;;1.60;1.10;;;26.10;36.60;;;;;;2294665;58;21062;-83
2022/06/05 13:08:11;;;;;;;1.17;0.95;;;26.20;36.80;;;;;;2295552;58;21087;-84
2022/06/05 13:10:42;;;;;;;2.83;1.10;;;26.30;38.20;;;;;;2293226;58;21091;-83
2022/06/05 13:13:24;;;;;;;2.03;0.95;;;26.30;37.50;;;;;;2529061;54;21123;-84
2022/06/05 13:15:55;;;;;;;1.45;1.00;;;26.30;37.90;;;;;;2530282;54;21067;-82
2022/06/05 13:18:32;;;;;;;1.37;1.25;;;26.30;37.00;;;;;;2292773;58;21042;-80
2022/06/05 13:21:13;;;;;;;1.10;1.00;;;26.30;35.90;;;;;;2293219;58;21062;-82
2022/06/05 13:23:46;;;;;;;1.25;1.15;;;26.30;35.90;;;;;;2529937;55;21079;-84
2022/06/05 13:26:22;;;;;;;1.50;1.25;;;26.30;34.60;;;;;;2295141;58;21082;-84
2022/06/05 13:28:55;;;;;;;1.10;1.00;;;26.30;35.60;;;;;;2294794;58;21074;-83
2022/06/05 13:31:28;;;;;;;;;;;26.40;35.70;;;;;;2297859;58;21039;-83
2022/06/05 13:34:06;;;;;;;1.67;1.10;;;26.30;35.70;;;;;;2294387;58;20092;-83
2022/06/05 13:36:38;;;;;;;1.10;1.00;;;26.40;36.30;;;;;;2293306;58;21119;-82
2022/06/05 13:39:22;;;;;;;1.77;1.15;;;26.40;34.80;;;;;;2295899;58;21066;-84
2022/06/05 13:41:57;;;;;;;3.50;1.50;;;26.40;35.00;;;;;;2296124;58;21226;-84
2022/06/05 13:44:28;;;;;;;1.48;1.05;;;26.40;34.90;;;;;;2294720;58;21091;-83